Weather History for Chester, CT

Change the Weather History Date:

Friday, April 26, 2013

  Actual Average (KHVN) Record (KHVN)
Temperature  
Mean Temperature 50 °F -  
Max Temperature 62 °F 60 °F 78 °F (1970)
Min Temperature 39 °F 42 °F 32 °F (2002)
Degree Days  
Heating Degree Days 14    
Moisture  
Dew Point 29 °F    
Average Humidity 40    
Maximum Humidity 65    
Minimum Humidity 27    
Precipitation  
Precipitation 0.00 in - - ()
Sea Level Pressure  
Sea Level Pressure 30.35 in    
Wind  
Wind Speed 4 mph (SSW)    
Max Wind Speed 13 mph    
Max Gust Speed 20 mph    
Visibility 10 miles    
Events      
Averages and records for this station are not official NWS values.
T = Trace of Precipitation, MM = Missing Value Source: NWS Daily Summary

Daily Weather History Graph

Daily Weather History Graph

Search for Another Location

Airport:

Trip Planner

Search our weather history database for the weather conditions in past years. The results will help you decide how hot, cold, wet, or windy it might be!

Date:

Astronomy

Apr. 26, 2013 Rise Set
Actual Time 5:53 AM EDT 7:42 PM EDT
Civil Twilight 5:24 AM EDT 8:12 PM EDT
Nautical Twilight 4:48 AM EDT 8:48 PM EDT
Astronomical Twilight 4:09 AM EDT 9:27 PM EDT
Moon 9:02 PM EDT (4/26) 6:18 AM EDT (4/26)
Length of Visible Light 14h 48m
Length of Day
13h 48m
Full, 99% of the Moon is Illuminated
Apr 26
Full
May 2
Last Quarter
May 9
New
May 18
First Quarter
May 25
Full

Hourly Weather History & Observations

Time (EDT) Temp. Windchill Dew Point Humidity Pressure Visibility Wind Dir Wind Speed Gust Speed Precip Events Conditions
12:15 AM 46.4 °F 45.2 °F 28.4 °F 50% 30.29 in 10.0 mi West 3.5 mph - N/A   Clear
12:35 AM 44.6 °F - 28.4 °F 53% 30.29 in 10.0 mi Calm Calm - N/A   Clear
12:55 AM 42.8 °F - 28.4 °F 57% 30.29 in 10.0 mi Calm Calm - N/A   Clear
1:15 AM 44.6 °F - 28.4 °F 53% 30.28 in 10.0 mi Calm Calm - N/A   Clear
1:35 AM 42.8 °F - 30.2 °F 61% 30.28 in 10.0 mi Calm Calm - N/A   Clear
1:55 AM 44.6 °F - 30.2 °F 57% 30.28 in 10.0 mi Calm Calm - N/A   Clear
2:15 AM 44.6 °F - 30.2 °F 57% 30.28 in 10.0 mi Calm Calm - N/A   Clear
2:35 AM 42.8 °F - 30.2 °F 61% 30.28 in 10.0 mi Calm Calm - N/A   Clear
2:55 AM 42.8 °F - 30.2 °F 61% 30.28 in 10.0 mi Calm Calm - N/A   Clear
3:15 AM 42.8 °F - 30.2 °F 61% 30.29 in 10.0 mi Calm Calm - N/A   Clear
3:35 AM 39.2 °F - 28.4 °F 65% 30.30 in 10.0 mi Calm Calm - N/A   Clear
3:55 AM 41.0 °F 39.0 °F 28.4 °F 61% 30.30 in 10.0 mi NW 3.5 mph - N/A   Clear
4:15 AM 39.2 °F 37.0 °F 24.8 °F 56% 30.31 in 10.0 mi NW 3.5 mph - N/A   Clear
4:35 AM 39.2 °F - 23.0 °F 52% 30.31 in 10.0 mi Calm Calm - N/A   Clear
4:55 AM 42.8 °F 41.1 °F 23.0 °F 46% 30.31 in 10.0 mi ENE 3.5 mph - N/A   Clear
5:15 AM 41.0 °F - 23.0 °F 49% 30.32 in 10.0 mi Calm Calm - N/A   Clear
5:35 AM 44.6 °F - 23.0 °F 43% 30.32 in 10.0 mi Calm Calm - N/A   Clear
5:55 AM 39.2 °F 35.9 °F 24.8 °F 56% 30.34 in 10.0 mi WNW 4.6 mph - N/A   Clear
6:15 AM 46.4 °F - 23.0 °F 40% 30.35 in 10.0 mi Calm Calm - N/A   Clear
6:35 AM 46.4 °F - 28.4 °F 50% 30.35 in 10.0 mi Calm Calm - N/A   Clear
6:55 AM 50.0 °F - 26.6 °F 40% 30.35 in 10.0 mi NE 3.5 mph - N/A   Clear
7:15 AM 50.0 °F - 26.6 °F 40% 30.36 in 10.0 mi East 5.8 mph - N/A   Clear
7:35 AM 50.0 °F - 26.6 °F 40% 30.36 in 10.0 mi ENE 5.8 mph - N/A   Clear
7:55 AM 51.8 °F - 28.4 °F 41% 30.36 in 10.0 mi NE 3.5 mph - N/A   Clear
8:15 AM 53.6 °F - 28.4 °F 38% 30.36 in 10.0 mi SSE 3.5 mph - N/A   Clear
8:35 AM 53.6 °F - 26.6 °F 35% 30.36 in 10.0 mi East 6.9 mph - N/A   Clear
8:55 AM 55.4 °F - 28.4 °F 36% 30.36 in 10.0 mi ESE 4.6 mph - N/A   Clear
9:15 AM 57.2 °F - 28.4 °F 33% 30.37 in 10.0 mi East 3.5 mph - N/A   Clear
9:35 AM 59.0 °F - 28.4 °F 31% 30.37 in 10.0 mi South 9.2 mph - N/A   Clear
9:55 AM 60.8 °F - 28.4 °F 29% 30.37 in 10.0 mi SSE 6.9 mph - N/A   Clear
10:15 AM 60.8 °F - 30.2 °F 31% 30.37 in 10.0 mi SE 6.9 mph - N/A   Clear
10:35 AM 62.6 °F - 30.2 °F 30% 30.37 in 10.0 mi South 9.2 mph - N/A   Clear
10:55 AM 60.8 °F - 30.2 °F 31% 30.37 in 7.0 mi South 9.2 mph - N/A   Clear
11:15 AM 62.6 °F - 30.2 °F 30% 30.36 in 10.0 mi ESE 9.2 mph - N/A   Clear
11:35 AM 60.8 °F - 32.0 °F 34% 30.36 in 10.0 mi South 8.1 mph - N/A   Clear
11:55 AM 60.8 °F - 32.0 °F 34% 30.36 in 10.0 mi South 9.2 mph - N/A   Clear
12:15 PM 60.8 °F - 32.0 °F 34% 30.35 in 10.0 mi South 9.2 mph - N/A   Clear
12:35 PM 62.6 °F - 33.8 °F 34% 30.35 in 10.0 mi SSW 11.5 mph 17.3 mph N/A   Clear
12:55 PM 62.6 °F - 32.0 °F 32% 30.35 in 10.0 mi SSW 10.4 mph - N/A   Clear
1:15 PM 62.6 °F - 32.0 °F 32% 30.34 in 10.0 mi SE 8.1 mph - N/A   Clear
1:35 PM 62.6 °F - 32.0 °F 32% 30.34 in 10.0 mi South 12.7 mph 16.1 mph N/A   Clear
1:55 PM 62.6 °F - 32.0 °F 32% 30.34 in 10.0 mi SSW 12.7 mph 16.1 mph N/A   Clear
2:15 PM 60.8 °F - 30.2 °F 31% 30.34 in 10.0 mi South 9.2 mph 16.1 mph N/A   Clear
2:35 PM 62.6 °F - 28.4 °F 27% 30.34 in 10.0 mi SSW 10.4 mph - N/A   Partly Cloudy
2:55 PM 62.6 °F - 28.4 °F 27% 30.34 in 10.0 mi SSW 10.4 mph 17.3 mph N/A   Partly Cloudy
3:15 PM 60.8 °F - 30.2 °F 31% 30.34 in 9.0 mi SW 9.2 mph - N/A   Clear
3:35 PM 62.6 °F - 30.2 °F 30% 30.34 in 10.0 mi SSW 8.1 mph - N/A   Clear
3:55 PM 62.6 °F - 32.0 °F 32% 30.34 in 10.0 mi South 10.4 mph - N/A   Clear
4:15 PM 62.6 °F - 30.2 °F 30% 30.33 in 7.0 mi WSW 11.5 mph 17.3 mph N/A   Clear
4:35 PM 62.6 °F - 28.4 °F 27% 30.33 in 10.0 mi SW 8.1 mph 18.4 mph N/A   Scattered Clouds
4:55 PM 60.8 °F - 28.4 °F 29% 30.33 in 10.0 mi West 5.8 mph 19.6 mph N/A   Partly Cloudy
5:15 PM 60.8 °F - 26.6 °F 27% 30.34 in 10.0 mi WSW 5.8 mph - N/A   Clear
5:35 PM 60.8 °F - 28.4 °F 29% 30.34 in 10.0 mi SW 4.6 mph - N/A   Clear
5:55 PM 60.8 °F - 28.4 °F 29% 30.34 in 10.0 mi SW 5.8 mph - N/A   Clear
6:15 PM 60.8 °F - 30.2 °F 31% 30.35 in 10.0 mi SW 5.8 mph - N/A   Scattered Clouds
6:35 PM 57.2 °F - 30.2 °F 36% 30.35 in 10.0 mi SSW 6.9 mph - N/A   Scattered Clouds
6:55 PM 57.2 °F - 30.2 °F 36% 30.36 in 10.0 mi WSW 6.9 mph - N/A   Scattered Clouds
7:15 PM 55.4 °F - 30.2 °F 38% 30.36 in 10.0 mi SW 4.6 mph - N/A   Partly Cloudy
7:35 PM 55.4 °F - 30.2 °F 38% 30.37 in 10.0 mi Calm Calm - N/A   Partly Cloudy
7:55 PM 53.6 °F - 32.0 °F 44% 30.37 in 10.0 mi SW 5.8 mph - N/A   Clear
8:15 PM 53.6 °F - 32.0 °F 44% 30.38 in 10.0 mi Calm Calm - N/A   Clear
8:35 PM 53.6 °F - 32.0 °F 44% 30.38 in 10.0 mi WNW 5.8 mph - N/A   Clear
8:55 PM 53.6 °F - 32.0 °F 44% 30.39 in 10.0 mi NW 3.5 mph - N/A   Clear
9:15 PM 51.8 °F - 32.0 °F 47% 30.39 in 10.0 mi NW 4.6 mph - N/A   Clear
9:35 PM 53.6 °F - 28.4 °F 38% 30.39 in 10.0 mi NNW 6.9 mph - N/A   Clear
9:55 PM 53.6 °F - 28.4 °F 38% 30.39 in 10.0 mi NNW 8.1 mph - N/A   Clear
10:15 PM 53.6 °F - 28.4 °F 38% 30.39 in 10.0 mi North 8.1 mph - N/A   Clear
10:35 PM 53.6 °F - 28.4 °F 38% 30.39 in 10.0 mi North 10.4 mph - N/A   Clear
10:55 PM 53.6 °F - 28.4 °F 38% 30.40 in 10.0 mi North 6.9 mph - N/A   Clear
11:15 PM 51.8 °F - 28.4 °F 41% 30.40 in 10.0 mi NNE 5.8 mph - N/A   Clear
11:35 PM 51.8 °F - 28.4 °F 41% 30.40 in 10.0 mi North 6.9 mph - N/A   Clear
11:55 PM 51.8 °F - 28.4 °F 41% 30.41 in 10.0 mi North 8.1 mph - N/A   Clear